Terminal Aerodrome Forecast
Issued by NWS Lake Charles, LA

Current Version | Previous Version | Text Only | Print | Product List | Glossary On
Versions: 1 2 3 4 5 6 7 8 9 10 11 12 13 14 15
000
FTUS44 KLCH 291720
TAFBPT
TAF
KBPT 291720Z 2918/3018 19014G22KT P6SM SCT025
     FM300000 16008KT P6SM SCT025
     FM300600 17005KT 4SM BR BKN015
      TEMPO 3010/3014 1SM BR OVC007=

USA.gov is the U.S. government's official web portal to all federal, state and local government web resources and services.